Time;durP1;ratioP1;P1;durP2;ratioP2;P2;SDS_P1;SDS_P2;PMS_P1;PMS_P2;Temp;Humidity;BMP_temperature;BMP_pressure;BME280_temperature;BME280_humidity;BME280_pressure;Samples;Min_cycle;Max_cycle;Signal;HPM_P1;HPM_P2
2021/10/27 00:03:20;;;;;;;4.25;3.28;;;;;;;5.22;100.00;97121.59;5219242;56;20136;-70
2021/10/27 00:08:23;;;;;;;3.95;3.55;;;;;;;5.17;100.00;97131.03;5219581;56;20131;-70
2021/10/27 00:13:25;;;;;;;4.18;3.30;;;;;;;5.17;100.00;97131.03;5219504;56;20127;-70
2021/10/27 00:18:29;;;;;;;3.83;3.33;;;;;;;5.03;100.00;97131.16;5219130;56;20131;-70
2021/10/27 00:23:31;;;;;;;4.32;3.15;;;;;;;4.96;100.00;97133.97;5219451;56;20113;-70
2021/10/27 00:28:34;;;;;;;4.60;3.00;;;;;;;4.85;100.00;97125.84;5218948;56;20690;-71
2021/10/27 00:33:37;;;;;;;2.88;2.63;;;;;;;4.90;100.00;97144.59;5219283;56;20136;-70
2021/10/27 00:38:39;;;;;;;3.53;2.90;;;;;;;4.90;100.00;97144.59;5218793;56;20114;-69
2021/10/27 00:43:42;;;;;;;3.72;3.03;;;;;;;4.85;100.00;97145.03;5218849;56;20156;-70
2021/10/27 00:48:46;;;;;;;4.93;3.05;;;;;;;4.77;100.00;97146.25;5218782;56;20122;-69
2021/10/27 00:53:49;;;;;;;5.38;3.63;;;;;;;4.71;100.00;97144.34;5222368;56;20136;-69
2021/10/27 00:58:52;;;;;;;5.18;3.67;;;;;;;4.73;100.00;97152.94;5222408;56;20122;-69
2021/10/27 01:03:54;;;;;;;3.63;2.92;;;;;;;4.69;100.00;97160.41;5221951;56;20136;-69
2021/10/27 01:08:56;;;;;;;5.15;3.30;;;;;;;4.69;100.00;97142.03;5221972;56;20349;-69
2021/10/27 01:13:59;;;;;;;6.68;3.05;;;;;;;4.65;100.00;97145.97;5221164;56;20130;-69
2021/10/27 01:19:02;;;;;;;3.92;2.97;;;;;;;4.66;100.00;97134.63;5234858;56;20327;-69
2021/10/27 01:24:05;;;;;;;3.08;2.72;;;;;;;4.61;100.00;97129.59;5242668;56;20126;-69
2021/10/27 01:29:07;;;;;;;3.75;2.90;;;;;;;4.61;100.00;97124.13;5242657;56;20125;-70
2021/10/27 01:34:09;;;;;;;3.58;2.45;;;;;;;4.58;99.93;97124.13;5242816;56;20121;-69
2021/10/27 01:39:12;;;;;;;3.20;2.90;;;;;;;4.47;99.75;97128.91;5242199;56;20148;-69
2021/10/27 01:44:14;;;;;;;5.53;2.40;;;;;;;4.46;99.78;97130.09;5242280;56;20117;-67
2021/10/27 01:49:17;;;;;;;5.25;2.60;;;;;;;4.48;100.00;97119.53;5242258;56;20116;-69
2021/10/27 01:54:19;;;;;;;3.95;2.65;;;;;;;4.51;100.00;97129.66;5242372;56;20129;-69
2021/10/27 01:59:22;;;;;;;5.25;2.25;;;;;;;4.48;99.87;97125.00;5242115;56;20671;-69
2021/10/27 02:04:24;;;;;;;2.53;2.33;;;;;;;4.50;99.16;97122.66;5241824;56;20662;-69
2021/10/27 02:09:27;;;;;;;2.92;2.63;;;;;;;4.29;100.00;97120.84;5242091;56;20109;-69
2021/10/27 02:14:31;;;;;;;2.50;2.30;;;;;;;4.26;99.94;97130.63;5241864;56;20135;-69
2021/10/27 02:19:34;;;;;;;2.35;2.15;;;;;;;4.23;99.90;97120.47;5241602;56;20139;-69
2021/10/27 02:24:36;;;;;;;2.40;2.20;;;;;;;4.27;100.00;97128.69;5232599;56;20573;-69
2021/10/27 02:29:39;;;;;;;3.05;2.28;;;;;;;4.24;99.22;97130.25;5232509;56;20121;-69
2021/10/27 02:34:41;;;;;;;2.65;2.28;;;;;;;4.12;100.00;97140.88;5241607;56;20134;-69
2021/10/27 02:39:44;;;;;;;2.63;2.42;;;;;;;4.13;100.00;97145.94;5241483;56;20728;-69
2021/10/27 02:44:46;;;;;;;4.28;2.97;;;;;;;4.06;100.00;97135.06;5232503;56;20135;-69
2021/10/27 02:49:48;;;;;;;2.80;2.50;;;;;;;4.05;100.00;97140.91;5241249;56;20126;-69
2021/10/27 02:54:50;;;;;;;2.17;2.05;;;;;;;4.10;100.00;97140.50;5241164;56;20306;-69
2021/10/27 02:59:53;;;;;;;3.05;2.58;;;;;;;4.11;99.27;97148.31;5241059;56;20586;-69
2021/10/27 03:04:55;;;;;;;2.30;2.10;;;;;;;3.98;99.55;97149.16;5241519;56;20590;-69
2021/10/27 03:09:57;;;;;;;2.78;2.50;;;;;;;3.88;99.63;97148.03;5241497;56;20126;-69
2021/10/27 03:15:00;;;;;;;7.45;2.65;;;;;;;3.83;100.00;97148.44;5236201;56;20140;-69
2021/10/27 03:20:03;;;;;;;2.42;2.22;;;;;;;3.85;99.85;97146.09;5229201;56;20125;-70
2021/10/27 03:25:06;;;;;;;3.75;2.90;;;;;;;3.86;100.00;97155.88;5242126;56;20117;-69
2021/10/27 03:30:09;;;;;;;2.22;2.00;;;;;;;3.83;99.72;97153.91;5241952;56;20117;-69
2021/10/27 03:35:11;;;;;;;2.47;2.08;;;;;;;3.87;99.69;97148.44;5241517;56;20138;-69
2021/10/27 03:40:13;;;;;;;2.40;2.03;;;;;;;3.79;99.36;97155.91;5243040;56;20644;-69
2021/10/27 03:45:16;;;;;;;2.33;2.13;;;;;;;3.77;99.76;97152.78;5231824;56;20226;-70
2021/10/27 03:50:18;;;;;;;1.88;1.77;;;;;;;3.85;99.50;97157.03;5240140;56;20121;-69
2021/10/27 03:55:21;;;;;;;3.17;2.42;;;;;;;3.69;99.04;97156.72;5240514;56;20219;-69
2021/10/27 04:00:23;;;;;;;2.83;2.45;;;;;;;3.70;98.91;97160.22;5240186;56;20126;-69
2021/10/27 04:05:26;;;;;;;3.08;2.15;;;;;;;3.55;99.33;97159.50;5240226;56;20117;-69
2021/10/27 04:10:28;;;;;;;2.80;2.03;;;;;;;3.51;99.78;97166.91;5240005;56;20122;-69
2021/10/27 04:15:31;;;;;;;2.63;2.42;;;;;;;3.43;99.96;97155.25;5239837;56;20147;-69
2021/10/27 04:20:34;;;;;;;4.97;2.33;;;;;;;3.55;100.00;97162.25;5240273;56;20143;-69
2021/10/27 04:25:37;;;;;;;2.08;1.90;;;;;;;3.63;99.93;97161.81;5240969;56;20139;-68
2021/10/27 04:30:39;;;;;;;2.35;2.13;;;;;;;3.59;99.44;97166.53;5234496;56;20135;-69
2021/10/27 04:35:42;;;;;;;2.15;2.00;;;;;;;3.53;99.04;97161.84;5242925;56;20125;-69
2021/10/27 04:40:44;;;;;;;4.43;2.10;;;;;;;3.45;99.01;97172.03;5243328;56;20108;-69
2021/10/27 04:45:47;;;;;;;2.30;2.10;;;;;;;3.46;98.99;97170.84;5242927;56;20662;-69
2021/10/27 04:50:49;;;;;;;2.28;2.03;;;;;;;3.34;98.76;97168.56;5243044;56;20664;-70
2021/10/27 04:55:52;;;;;;;2.08;1.88;;;;;;;3.28;98.86;97177.53;5242729;56;20121;-69
2021/10/27 05:00:54;;;;;;;2.10;1.95;;;;;;;3.38;99.38;97174.00;5242951;56;20117;-69
2021/10/27 05:05:58;;;;;;;3.42;1.95;;;;;;;3.33;99.15;97175.19;5242572;56;20568;-70
2021/10/27 05:11:00;;;;;;;3.10;2.08;;;;;;;3.29;99.14;97182.59;5242712;56;20595;-69
2021/10/27 05:16:03;;;;;;;2.45;2.25;;;;;;;3.25;98.36;97178.31;5233885;56;20131;-70
2021/10/27 05:21:06;;;;;;;2.83;2.15;;;;;;;3.17;98.52;97174.03;5233750;56;20117;-69
2021/10/27 05:26:08;;;;;;;2.78;2.00;;;;;;;3.14;97.79;97183.81;5242358;56;20130;-69
2021/10/27 05:31:11;;;;;;;2.45;2.03;;;;;;;3.02;98.66;97194.34;5242439;56;20144;-69
2021/10/27 05:36:13;;;;;;;1.80;1.70;;;;;;;3.09;98.97;97186.16;5241823;56;20715;-69
2021/10/27 05:41:16;;;;;;;1.98;1.88;;;;;;;3.06;99.37;97201.34;5242259;56;20126;-69
2021/10/27 05:46:20;;;;;;;2.45;1.88;;;;;;;2.97;99.13;97197.47;5241962;56;20130;-69
2021/10/27 05:51:35;;;;;;;2.40;2.15;;;;;;;3.04;99.35;97192.00;5242495;56;20653;-69
2021/10/27 05:56:38;;;;;;;2.15;1.95;;;;;;;3.13;99.42;97203.28;5241951;56;20745;-69
2021/10/27 06:01:40;;;;;;;2.35;1.90;;;;;;;3.18;99.15;97202.91;5242014;56;20582;-69
2021/10/27 06:06:45;;;;;;;1.98;1.83;;;;;;;3.26;99.01;97204.44;5241764;56;20121;-69
2021/10/27 06:11:47;;;;;;;2.08;1.80;;;;;;;3.31;99.31;97204.06;5241974;56;20121;-69
2021/10/27 06:16:49;;;;;;;2.60;2.20;;;;;;;3.46;98.44;97219.25;5241913;56;20143;-69
2021/10/27 06:21:52;;;;;;;3.00;1.92;;;;;;;3.47;98.02;97227.06;5241974;56;20121;-69
2021/10/27 06:26:54;;;;;;;2.58;2.33;;;;;;;3.59;99.45;97223.13;5241588;56;20117;-68
2021/10/27 06:45:58;;;;;;;4.07;2.33;;;;;;;4.12;97.15;97229.16;5241766;56;20130;-69
2021/10/27 06:48:15;;;;;;;3.28;2.40;;;;;;;4.33;96.65;97242.75;5240399;56;20190;-69
2021/10/27 06:53:37;;;;;;;2.60;2.00;;;;;;;4.46;96.26;97247.75;5241323;56;20165;-69
2021/10/27 06:59:05;;;;;;;2.40;2.20;;;;;;;4.61;97.60;97249.25;5240978;56;20829;-69
2021/10/27 07:20:01;;;;;;;2.78;2.20;;;;;;;5.55;96.37;97249.66;5219821;56;20248;-70
2021/10/27 07:25:03;;;;;;;2.38;2.17;;;;;;;5.85;96.29;97249.78;5225126;56;20122;-69
2021/10/27 07:30:06;;;;;;;2.25;2.05;;;;;;;6.16;97.05;97250.59;5239408;56;20772;-69
2021/10/27 07:45:31;;;;;;;3.13;2.00;;;;;;;6.97;96.53;97244.75;5219029;56;20117;-69
2021/10/27 07:50:36;;;;;;;4.53;2.60;;;;;;;7.23;96.45;97240.44;5218976;56;20118;-69
2021/10/27 07:55:45;;;;;;;7.95;2.67;;;;;;;7.52;97.56;97233.25;5218755;56;20131;-69
2021/10/27 08:00:51;;;;;;;6.07;2.47;;;;;;;7.75;93.65;97251.69;5220620;56;20207;-69
2021/10/27 08:05:56;;;;;;;2.38;2.17;;;;;;;8.02;94.18;97248.84;5222158;56;20122;-70
2021/10/27 08:10:59;;;;;;;6.05;2.55;;;;;;;8.23;93.37;97246.41;5218295;56;20132;-69
2021/10/27 08:16:03;;;;;;;3.03;2.75;;;;;;;8.48;92.62;97246.72;5222349;56;20127;-70
2021/10/27 08:21:06;;;;;;;5.00;2.55;;;;;;;8.92;92.50;97245.34;5222416;56;20915;-69
2021/10/27 08:26:14;;;;;;;6.05;2.65;;;;;;;9.27;90.00;97241.75;5222175;56;20113;-69
2021/10/27 08:36:23;;;;;;;3.33;2.92;;;;;;;9.89;92.23;97246.09;5221673;56;20136;-70
2021/10/27 08:41:26;;;;;;;3.45;2.83;;;;;;;10.18;89.47;97229.53;5222545;56;20214;-70
2021/10/27 08:46:30;;;;;;;3.42;2.95;;;;;;;10.49;87.29;97229.84;5222222;56;20132;-69
2021/10/27 08:51:34;;;;;;;5.07;2.95;;;;;;;10.63;85.30;97230.19;5213036;56;20671;-69
2021/10/27 08:56:43;;;;;;;5.50;4.00;;;;;;;10.94;84.94;97246.25;5226628;56;20140;-69
2021/10/27 09:34:02;;;;;;;5.50;4.18;;;;;;;13.33;77.64;97212.72;5218286;56;20733;-70
2021/10/27 10:06:05;;;;;;;4.80;3.92;;;;;;;13.83;74.91;97225.31;5208759;56;20143;-69
2021/10/27 10:11:09;;;;;;;4.00;3.60;;;;;;;13.96;75.24;97222.38;5216095;56;20101;-69
2021/10/27 10:16:14;;;;;;;5.55;3.90;;;;;;;13.75;73.99;97220.53;5217459;56;20122;-69
2021/10/27 10:21:26;;;;;;;4.47;3.90;;;;;;;14.51;72.59;97225.94;5217076;56;20140;-70
2021/10/27 10:26:31;;;;;;;5.30;3.92;;;;;;;14.57;71.02;97212.94;5207401;56;21156;-70
2021/10/27 10:31:36;;;;;;;4.72;4.07;;;;;;;14.45;70.90;97208.34;5213423;56;20132;-70
2021/10/27 10:36:43;;;;;;;4.32;3.92;;;;;;;14.84;72.30;97202.50;5217689;56;20122;-70
2021/10/27 11:24:53;;;;;;;6.07;4.70;;;;;;;16.12;64.80;97163.50;5219427;56;20136;-70
2021/10/27 11:40:58;;;;;;;8.55;5.65;;;;;;;16.63;61.06;97124.09;5212082;56;20131;-70
2021/10/27 11:51:14;;;;;;;6.13;5.27;;;;;;;17.42;59.88;97119.16;5218632;56;20964;-70
2021/10/27 11:56:20;;;;;;;7.88;4.70;;;;;;;17.25;61.89;97109.81;5208940;56;20987;-70
2021/10/27 12:06:59;;;;;;;4.90;4.15;;;;;;;17.31;58.80;97105.03;5214138;56;20703;-71
2021/10/27 12:22:36;;;;;;;6.50;4.55;;;;;;;17.83;59.15;97076.75;5212420;56;20117;-71
2021/10/27 12:27:42;;;;;;;5.75;4.32;;;;;;;17.68;60.18;97067.72;5215129;56;20122;-71
2021/10/27 12:32:53;;;;;;;4.72;3.65;;;;;;;17.95;56.92;97062.88;5217895;56;20126;-71
2021/10/27 12:38:12;;;;;;;4.47;3.92;;;;;;;17.99;57.73;97055.03;5219462;56;20126;-71
2021/10/27 12:43:17;;;;;;;4.55;3.85;;;;;;;17.84;57.50;97057.97;5220633;56;20127;-72
2021/10/27 12:48:20;;;;;;;3.50;3.20;;;;;;;18.50;55.47;97052.19;5224890;56;20176;-70
2021/10/27 12:53:31;;;;;;;4.32;3.67;;;;;;;18.32;55.32;97050.50;5225094;56;20118;-70
2021/10/27 12:58:38;;;;;;;4.15;3.75;;;;;;;17.69;57.24;97051.69;5217914;56;20591;-71
2021/10/27 13:19:47;;;;;;;4.57;4.18;;;;;;;18.37;56.04;97029.44;5215011;56;20185;-71
2021/10/27 13:30:11;;;;;;;5.57;4.53;;;;;;;17.23;60.53;97011.75;5219873;56;20147;-71
2021/10/27 13:35:14;;;;;;;6.70;5.53;;;;;;;16.01;63.56;97010.72;5221246;56;20221;-71
2021/10/27 13:40:17;;;;;;;6.65;5.25;;;;;;;16.72;62.88;97013.13;5212688;56;20163;-71
2021/10/27 14:06:48;;;;;;;8.90;6.10;;;;;;;16.25;64.00;96991.88;5217825;56;20591;-71
2021/10/27 15:21:44;;;;;;;18.50;11.45;;;;;;;12.97;85.09;96973.97;5186854;56;20150;-71
2021/10/27 15:53:08;;;;;;;18.75;11.57;;;;;;;11.79;92.08;96972.91;5179802;56;20718;-71
2021/10/27 15:58:10;;;;;;;20.50;12.35;;;;;;;11.54;92.83;96968.28;5210042;56;20157;-70
2021/10/27 16:03:15;;;;;;;22.20;12.93;;;;;;;11.25;95.06;96973.34;5217477;56;20149;-71
2021/10/27 16:08:20;;;;;;;18.75;11.75;;;;;;;11.03;96.19;96969.78;5209658;56;20123;-71
2021/10/27 16:13:24;;;;;;;21.52;11.43;;;;;;;10.82;97.45;96971.31;5209582;56;20114;-70
2021/10/27 16:18:32;;;;;;;22.48;13.38;;;;;;;10.68;98.22;96975.34;5221340;56;20564;-71
2021/10/27 16:23:35;;;;;;;24.58;13.98;;;;;;;10.46;99.16;96968.22;5209715;56;20601;-71
2021/10/27 16:28:37;;;;;;;23.00;12.80;;;;;;;10.25;99.94;96966.91;5219563;56;20266;-71
2021/10/27 16:33:42;;;;;;;17.85;10.77;;;;;;;10.21;99.93;96965.50;5222346;56;20666;-71
2021/10/27 16:38:45;;;;;;;20.05;11.13;;;;;;;9.99;99.94;96973.66;5222116;56;20123;-70
2021/10/27 16:43:47;;;;;;;17.33;10.57;;;;;;;9.81;100.00;96978.97;5205140;56;20113;-71
2021/10/27 16:48:50;;;;;;;20.83;12.20;;;;;;;9.75;100.00;96972.44;5213504;56;20647;-71
2021/10/27 16:53:53;;;;;;;20.40;12.85;;;;;;;9.75;100.00;96972.44;5213686;56;20140;-71
2021/10/27 16:58:55;;;;;;;20.55;12.68;;;;;;;9.82;100.00;96970.22;5203313;56;20674;-70
2021/10/27 17:03:59;;;;;;;19.35;11.93;;;;;;;9.82;100.00;96980.50;5224461;56;20165;-71
2021/10/27 17:09:03;;;;;;;17.80;11.68;;;;;;;9.76;100.00;96977.53;5213018;56;20230;-72
2021/10/27 17:14:05;;;;;;;20.38;11.98;;;;;;;9.80;100.00;96969.13;5213813;56;20127;-71
2021/10/27 17:19:09;;;;;;;20.27;12.30;;;;;;;9.91;100.00;96975.09;5202493;56;20730;-71
2021/10/27 17:24:16;;;;;;;22.90;13.52;;;;;;;9.58;100.00;96977.28;5220053;56;20231;-71
2021/10/27 17:29:18;;;;;;;21.80;12.73;;;;;;;9.69;100.00;96977.75;5218963;56;20241;-71
2021/10/27 17:34:21;;;;;;;21.33;12.73;;;;;;;9.81;100.00;96974.22;5194491;56;20239;-72
2021/10/27 17:39:23;;;;;;;21.88;13.07;;;;;;;9.75;100.00;96975.19;5218788;56;20663;-71
2021/10/27 17:44:26;;;;;;;19.65;12.40;;;;;;;9.67;100.00;96974.66;5212425;56;20122;-71
2021/10/27 17:49:44;;;;;;;21.48;13.18;;;;;;;9.69;100.00;96980.50;5212357;56;20127;-71
2021/10/27 18:00:08;;;;;;;20.38;12.05;;;;;;;9.64;100.00;96974.75;5214527;56;20117;-72
2021/10/27 18:05:11;;;;;;;20.05;11.75;;;;;;;9.53;100.00;96980.59;5219031;56;20156;-72
2021/10/27 18:10:15;;;;;;;19.55;12.13;;;;;;;9.50;100.00;96975.94;5221163;56;20114;-72
2021/10/27 18:15:18;;;;;;;18.38;11.52;;;;;;;9.59;100.00;96970.53;5220982;56;20128;-71
2021/10/27 18:20:25;;;;;;;26.10;12.98;;;;;;;9.22;100.00;96977.56;5212184;56;20863;-72
2021/10/27 18:25:35;;;;;;;21.50;12.00;;;;;;;9.20;100.00;96981.97;5220835;56;20629;-72
2021/10/27 18:41:48;;;;;;;14.15;9.43;;;;;;;9.37;100.00;96972.38;5195060;56;20122;-71
2021/10/27 18:46:51;;;;;;;19.10;11.13;;;;;;;9.42;100.00;96968.31;5214117;56;20236;-70
2021/10/27 18:52:12;;;;;;;17.60;10.18;;;;;;;9.36;100.00;96959.81;5213979;56;20232;-71
2021/10/27 18:57:34;;;;;;;21.88;9.60;;;;;;;9.14;100.00;96969.91;5210461;56;20214;-72
2021/10/27 19:19:03;;;;;;;15.18;9.90;;;;;;;8.83;100.00;96972.34;1486526;52;20211;-71
2021/10/27 19:24:09;;;;;;;21.08;11.27;;;;;;;8.70;100.00;96973.50;5178765;57;20115;-72
2021/10/27 19:29:21;;;;;;;17.25;9.15;;;;;;;8.43;100.00;96971.81;5178037;57;20189;-71
2021/10/27 19:34:49;;;;;;;12.98;8.68;;;;;;;8.57;100.00;96960.41;5178872;57;20127;-74
2021/10/27 20:12:23;;;;;;;11.88;8.90;;;;;;;8.43;100.00;96949.78;5193469;57;20126;-70
2021/10/27 20:54:19;;;;;;;10.60;8.10;;;;;;;8.06;100.00;96916.47;5171980;57;20678;-71
2021/10/27 21:15:18;;;;;;;10.25;7.57;;;;;;;7.78;100.00;96910.47;5172827;57;20120;-72
2021/10/27 21:20:21;;;;;;;14.98;8.05;;;;;;;7.63;100.00;96908.50;5178091;57;20617;-70
2021/10/27 21:25:25;;;;;;;10.82;8.10;;;;;;;7.79;100.00;96901.03;5175705;57;20128;-71
2021/10/27 21:30:53;;;;;;;9.20;7.32;;;;;;;7.91;100.00;96905.81;5173735;57;20143;-71
2021/10/27 21:46:33;;;;;;;13.32;9.27;;;;;;;7.77;100.00;96888.91;5182088;57;20168;-72
2021/10/27 21:51:37;;;;;;;9.68;7.28;;;;;;;7.78;100.00;96880.22;5184670;57;20217;-71
2021/10/27 21:56:41;;;;;;;12.52;9.32;;;;;;;7.79;100.00;96881.78;5191688;57;20664;-71
2021/10/27 22:01:44;;;;;;;15.18;9.30;;;;;;;7.88;100.00;96879.19;5191809;57;20144;-70
2021/10/27 22:06:47;;;;;;;13.07;8.27;;;;;;;7.92;100.00;96879.88;5200354;57;20123;-72
2021/10/27 22:11:51;;;;;;;12.07;8.43;;;;;;;7.82;100.00;96872.63;5184139;57;20584;-71
2021/10/27 22:16:54;;;;;;;13.95;8.35;;;;;;;7.85;100.00;96871.00;5191153;57;20132;-71
2021/10/27 22:21:57;;;;;;;11.25;8.48;;;;;;;7.73;100.00;96855.22;5192386;57;20576;-71
2021/10/27 22:26:59;;;;;;;10.77;8.88;;;;;;;7.61;100.00;96855.88;5179482;57;20631;-70
2021/10/27 22:32:02;;;;;;;12.40;8.80;;;;;;;7.76;100.00;96844.09;5162988;57;20131;-71
2021/10/27 22:37:05;;;;;;;13.68;8.23;;;;;;;7.78;100.00;96838.16;5163555;57;20125;-70
2021/10/27 22:42:08;;;;;;;16.23;8.48;;;;;;;7.83;100.00;96834.91;5160108;57;20757;-71
2021/10/27 22:47:12;;;;;;;14.68;9.15;;;;;;;7.97;100.00;96829.03;5169778;57;20130;-71
2021/10/27 22:52:15;;;;;;;19.15;9.98;;;;;;;7.88;100.00;96818.66;5171000;57;20115;-71
2021/10/27 22:57:18;;;;;;;12.73;9.05;;;;;;;7.79;100.00;96814.97;5175963;57;20110;-73
2021/10/27 23:02:34;;;;;;;15.65;9.45;;;;;;;7.68;100.00;96812.50;5170746;57;20142;-71
2021/10/27 23:07:56;;;;;;;15.40;11.48;;;;;;;7.59;100.00;96812.31;5178502;57;20653;-71
2021/10/27 23:50:12;;;;;;;14.45;8.23;;;;;;;7.34;100.00;96797.63;5198909;57;20777;-71
2021/10/27 23:55:32;;;;;;;12.95;7.63;;;;;;;7.30;100.00;96797.72;5198403;57;20228;-72
